sensor_id;sensor_type;location;lat;lon;timestamp;temperature;humidity
42365;DHT22;28498;54.400;18.566;2023-09-07T00:00:17;16.00;99.90
42365;DHT22;28498;54.400;18.566;2023-09-07T00:02:44;15.90;99.90
42365;DHT22;28498;54.400;18.566;2023-09-07T00:05:11;15.90;99.90
42365;DHT22;28498;54.400;18.566;2023-09-07T00:07:40;16.00;99.90
42365;DHT22;28498;54.400;18.566;2023-09-07T00:10:07;15.90;99.90
42365;DHT22;28498;54.400;18.566;2023-09-07T00:12:34;15.80;99.90
42365;DHT22;28498;54.400;18.566;2023-09-07T00:15:02;15.60;99.90
42365;DHT22;28498;54.400;18.566;2023-09-07T00:17:30;15.60;99.90
42365;DHT22;28498;54.400;18.566;2023-09-07T00:19:57;15.50;99.90
42365;DHT22;28498;54.400;18.566;2023-09-07T00:22:25;15.40;99.90
42365;DHT22;28498;54.400;18.566;2023-09-07T00:24:54;15.40;99.90
42365;DHT22;28498;54.400;18.566;2023-09-07T00:27:21;15.30;99.90
42365;DHT22;28498;54.400;18.566;2023-09-07T00:29:48;15.30;99.90
42365;DHT22;28498;54.400;18.566;2023-09-07T00:32:15;15.20;99.90
42365;DHT22;28498;54.400;18.566;2023-09-07T00:34:43;15.30;99.90
42365;DHT22;28498;54.400;18.566;2023-09-07T00:37:10;15.30;99.90
42365;DHT22;28498;54.400;18.566;2023-09-07T00:39:37;15.20;99.90
42365;DHT22;28498;54.400;18.566;2023-09-07T00:42:04;15.20;99.90
42365;DHT22;28498;54.400;18.566;2023-09-07T00:44:31;15.20;99.90
42365;DHT22;28498;54.400;18.566;2023-09-07T00:46:58;15.20;99.90
42365;DHT22;28498;54.400;18.566;2023-09-07T00:49:26;15.10;99.90
42365;DHT22;28498;54.400;18.566;2023-09-07T00:51:53;15.10;99.90
42365;DHT22;28498;54.400;18.566;2023-09-07T00:54:20;15.10;99.90
42365;DHT22;28498;54.400;18.566;2023-09-07T00:56:47;15.10;99.90
42365;DHT22;28498;54.400;18.566;2023-09-07T00:59:14;15.20;99.90
42365;DHT22;28498;54.400;18.566;2023-09-07T01:01:41;15.30;99.90
42365;DHT22;28498;54.400;18.566;2023-09-07T01:04:10;15.40;99.90
42365;DHT22;28498;54.400;18.566;2023-09-07T01:06:57;15.40;99.90
42365;DHT22;28498;54.400;18.566;2023-09-07T01:09:30;15.50;99.90
42365;DHT22;28498;54.400;18.566;2023-09-07T01:11:57;15.60;99.90
42365;DHT22;28498;54.400;18.566;2023-09-07T01:14:24;15.70;99.90
42365;DHT22;28498;54.400;18.566;2023-09-07T01:16:51;15.80;99.90
42365;DHT22;28498;54.400;18.566;2023-09-07T01:19:18;15.90;99.90
42365;DHT22;28498;54.400;18.566;2023-09-07T01:21:46;16.00;99.90
42365;DHT22;28498;54.400;18.566;2023-09-07T01:24:14;16.00;99.90
42365;DHT22;28498;54.400;18.566;2023-09-07T01:26:42;16.10;99.90
42365;DHT22;28498;54.400;18.566;2023-09-07T01:29:09;16.20;99.90
42365;DHT22;28498;54.400;18.566;2023-09-07T01:31:37;16.30;99.90
42365;DHT22;28498;54.400;18.566;2023-09-07T01:34:05;16.30;99.90
42365;DHT22;28498;54.400;18.566;2023-09-07T01:36:36;16.40;99.90
42365;DHT22;28498;54.400;18.566;2023-09-07T01:39:06;16.50;99.90
42365;DHT22;28498;54.400;18.566;2023-09-07T01:41:33;16.60;99.90
42365;DHT22;28498;54.400;18.566;2023-09-07T01:44:00;16.60;99.90
42365;DHT22;28498;54.400;18.566;2023-09-07T01:46:28;16.60;99.90
42365;DHT22;28498;54.400;18.566;2023-09-07T01:48:55;16.60;99.90
42365;DHT22;28498;54.400;18.566;2023-09-07T01:51:22;16.60;99.90
42365;DHT22;28498;54.400;18.566;2023-09-07T01:53:49;16.70;99.90
42365;DHT22;28498;54.400;18.566;2023-09-07T01:56:17;16.70;99.90
42365;DHT22;28498;54.400;18.566;2023-09-07T01:58:44;16.60;99.90
42365;DHT22;28498;54.400;18.566;2023-09-07T02:01:25;16.60;99.90
42365;DHT22;28498;54.400;18.566;2023-09-07T02:03:52;16.60;99.90
42365;DHT22;28498;54.400;18.566;2023-09-07T02:06:19;16.70;99.90
42365;DHT22;28498;54.400;18.566;2023-09-07T02:08:46;16.70;99.90
42365;DHT22;28498;54.400;18.566;2023-09-07T02:11:13;16.70;99.90
42365;DHT22;28498;54.400;18.566;2023-09-07T02:13:45;16.70;99.90
42365;DHT22;28498;54.400;18.566;2023-09-07T02:16:12;16.70;99.90
42365;DHT22;28498;54.400;18.566;2023-09-07T02:18:40;16.80;99.90
42365;DHT22;28498;54.400;18.566;2023-09-07T02:21:10;16.80;99.90
42365;DHT22;28498;54.400;18.566;2023-09-07T02:23:37;16.80;99.90
42365;DHT22;28498;54.400;18.566;2023-09-07T02:26:04;16.70;99.90
42365;DHT22;28498;54.400;18.566;2023-09-07T02:28:31;16.60;99.90
42365;DHT22;28498;54.400;18.566;2023-09-07T02:31:03;16.60;99.90
42365;DHT22;28498;54.400;18.566;2023-09-07T02:33:31;16.40;99.90
42365;DHT22;28498;54.400;18.566;2023-09-07T02:35:59;16.30;99.90
42365;DHT22;28498;54.400;18.566;2023-09-07T02:38:26;16.20;99.90
42365;DHT22;28498;54.400;18.566;2023-09-07T02:40:55;16.20;99.90
42365;DHT22;28498;54.400;18.566;2023-09-07T02:43:22;16.10;99.90
42365;DHT22;28498;54.400;18.566;2023-09-07T02:45:50;16.00;99.90
42365;DHT22;28498;54.400;18.566;2023-09-07T02:48:17;16.00;99.90
42365;DHT22;28498;54.400;18.566;2023-09-07T02:50:45;15.90;99.90
42365;DHT22;28498;54.400;18.566;2023-09-07T02:53:16;15.80;99.90
42365;DHT22;28498;54.400;18.566;2023-09-07T02:55:43;15.90;99.90
42365;DHT22;28498;54.400;18.566;2023-09-07T02:58:11;15.90;99.90
42365;DHT22;28498;54.400;18.566;2023-09-07T03:00:44;16.00;99.90
42365;DHT22;28498;54.400;18.566;2023-09-07T03:03:12;16.00;99.90
42365;DHT22;28498;54.400;18.566;2023-09-07T03:05:40;15.90;99.90
42365;DHT22;28498;54.400;18.566;2023-09-07T03:08:08;16.00;99.90
42365;DHT22;28498;54.400;18.566;2023-09-07T03:10:36;15.90;99.90
42365;DHT22;28498;54.400;18.566;2023-09-07T03:13:04;15.80;99.90
42365;DHT22;28498;54.400;18.566;2023-09-07T03:15:31;15.80;99.90
42365;DHT22;28498;54.400;18.566;2023-09-07T03:17:58;15.80;99.90
42365;DHT22;28498;54.400;18.566;2023-09-07T03:20:26;15.90;99.90
42365;DHT22;28498;54.400;18.566;2023-09-07T03:22:53;16.00;99.90
42365;DHT22;28498;54.400;18.566;2023-09-07T03:25:20;16.00;99.90
42365;DHT22;28498;54.400;18.566;2023-09-07T03:27:47;16.10;99.90
42365;DHT22;28498;54.400;18.566;2023-09-07T03:30:14;16.10;99.90
42365;DHT22;28498;54.400;18.566;2023-09-07T03:32:41;16.20;99.90
42365;DHT22;28498;54.400;18.566;2023-09-07T03:35:08;16.40;99.90
42365;DHT22;28498;54.400;18.566;2023-09-07T03:37:36;16.40;99.90
42365;DHT22;28498;54.400;18.566;2023-09-07T03:40:05;16.40;99.90
42365;DHT22;28498;54.400;18.566;2023-09-07T03:42:32;16.40;99.90
42365;DHT22;28498;54.400;18.566;2023-09-07T03:44:59;16.50;99.90
42365;DHT22;28498;54.400;18.566;2023-09-07T03:47:27;16.60;99.90
42365;DHT22;28498;54.400;18.566;2023-09-07T03:49:57;16.60;99.90
42365;DHT22;28498;54.400;18.566;2023-09-07T03:52:24;16.70;99.90
42365;DHT22;28498;54.400;18.566;2023-09-07T03:54:57;16.80;99.90
42365;DHT22;28498;54.400;18.566;2023-09-07T03:57:25;16.90;99.90
42365;DHT22;28498;54.400;18.566;2023-09-07T03:59:52;16.90;99.90
42365;DHT22;28498;54.400;18.566;2023-09-07T04:02:19;16.90;99.90
42365;DHT22;28498;54.400;18.566;2023-09-07T04:04:51;16.90;99.90
42365;DHT22;28498;54.400;18.566;2023-09-07T04:07:19;17.00;99.90
42365;DHT22;28498;54.400;18.566;2023-09-07T04:09:46;17.00;99.90
42365;DHT22;28498;54.400;18.566;2023-09-07T04:12:13;17.10;99.90
42365;DHT22;28498;54.400;18.566;2023-09-07T04:14:41;17.20;99.90
42365;DHT22;28498;54.400;18.566;2023-09-07T04:17:09;17.20;99.90
42365;DHT22;28498;54.400;18.566;2023-09-07T04:19:36;17.20;99.90
42365;DHT22;28498;54.400;18.566;2023-09-07T04:22:03;17.20;99.90
42365;DHT22;28498;54.400;18.566;2023-09-07T04:24:30;17.30;99.90
42365;DHT22;28498;54.400;18.566;2023-09-07T04:27:01;17.30;99.90
42365;DHT22;28498;54.400;18.566;2023-09-07T04:29:28;17.30;99.90
42365;DHT22;28498;54.400;18.566;2023-09-07T04:31:56;17.30;99.90
42365;DHT22;28498;54.400;18.566;2023-09-07T04:34:23;17.40;99.90
42365;DHT22;28498;54.400;18.566;2023-09-07T04:36:51;17.50;99.90
42365;DHT22;28498;54.400;18.566;2023-09-07T04:39:18;17.50;99.90
42365;DHT22;28498;54.400;18.566;2023-09-07T04:41:45;17.50;99.90
42365;DHT22;28498;54.400;18.566;2023-09-07T04:44:12;17.60;99.90
42365;DHT22;28498;54.400;18.566;2023-09-07T04:46:39;17.60;99.90
42365;DHT22;28498;54.400;18.566;2023-09-07T04:49:07;17.70;99.90
42365;DHT22;28498;54.400;18.566;2023-09-07T04:51:34;17.70;99.90
42365;DHT22;28498;54.400;18.566;2023-09-07T04:54:01;17.80;99.90
42365;DHT22;28498;54.400;18.566;2023-09-07T04:56:28;17.80;99.90
42365;DHT22;28498;54.400;18.566;2023-09-07T04:58:56;17.80;99.90
42365;DHT22;28498;54.400;18.566;2023-09-07T05:01:23;17.90;99.90
42365;DHT22;28498;54.400;18.566;2023-09-07T05:03:50;17.90;99.90
42365;DHT22;28498;54.400;18.566;2023-09-07T05:06:19;18.00;99.90
42365;DHT22;28498;54.400;18.566;2023-09-07T05:08:46;18.00;99.90
42365;DHT22;28498;54.400;18.566;2023-09-07T05:11:13;18.00;99.90
42365;DHT22;28498;54.400;18.566;2023-09-07T05:13:40;18.10;99.90
42365;DHT22;28498;54.400;18.566;2023-09-07T05:16:07;18.20;99.90
42365;DHT22;28498;54.400;18.566;2023-09-07T05:18:34;18.20;99.90
42365;DHT22;28498;54.400;18.566;2023-09-07T05:21:14;18.30;99.90
42365;DHT22;28498;54.400;18.566;2023-09-07T05:23:42;18.30;99.90
42365;DHT22;28498;54.400;18.566;2023-09-07T05:26:09;18.40;99.90
42365;DHT22;28498;54.400;18.566;2023-09-07T05:28:36;18.50;99.90
42365;DHT22;28498;54.400;18.566;2023-09-07T05:31:03;18.50;99.90
42365;DHT22;28498;54.400;18.566;2023-09-07T05:33:31;18.50;99.90
42365;DHT22;28498;54.400;18.566;2023-09-07T05:35:58;18.60;99.90
42365;DHT22;28498;54.400;18.566;2023-09-07T05:38:25;18.70;99.90
42365;DHT22;28498;54.400;18.566;2023-09-07T05:40:53;18.80;99.90
42365;DHT22;28498;54.400;18.566;2023-09-07T05:43:21;19.00;99.90
42365;DHT22;28498;54.400;18.566;2023-09-07T05:45:48;19.20;99.90
42365;DHT22;28498;54.400;18.566;2023-09-07T05:48:15;19.20;99.90
42365;DHT22;28498;54.400;18.566;2023-09-07T05:50:45;19.10;99.90
42365;DHT22;28498;54.400;18.566;2023-09-07T05:53:12;19.10;99.90
42365;DHT22;28498;54.400;18.566;2023-09-07T05:55:39;19.10;99.90
42365;DHT22;28498;54.400;18.566;2023-09-07T05:58:07;19.10;99.90
42365;DHT22;28498;54.400;18.566;2023-09-07T06:00:36;19.10;99.90
42365;DHT22;28498;54.400;18.566;2023-09-07T06:03:04;19.10;99.90
42365;DHT22;28498;54.400;18.566;2023-09-07T06:05:33;19.10;99.90
42365;DHT22;28498;54.400;18.566;2023-09-07T06:08:00;19.20;99.90
42365;DHT22;28498;54.400;18.566;2023-09-07T06:10:30;19.30;99.90
42365;DHT22;28498;54.400;18.566;2023-09-07T06:12:57;19.40;99.90
42365;DHT22;28498;54.400;18.566;2023-09-07T06:15:27;19.40;99.90
42365;DHT22;28498;54.400;18.566;2023-09-07T06:17:54;19.50;99.90
42365;DHT22;28498;54.400;18.566;2023-09-07T06:20:21;19.60;99.90
42365;DHT22;28498;54.400;18.566;2023-09-07T06:22:49;19.60;99.90
42365;DHT22;28498;54.400;18.566;2023-09-07T06:25:16;19.80;99.90
42365;DHT22;28498;54.400;18.566;2023-09-07T06:27:43;19.70;99.90
42365;DHT22;28498;54.400;18.566;2023-09-07T06:30:10;19.80;99.90
42365;DHT22;28498;54.400;18.566;2023-09-07T06:32:37;19.80;99.90
42365;DHT22;28498;54.400;18.566;2023-09-07T06:35:06;19.70;99.90
42365;DHT22;28498;54.400;18.566;2023-09-07T06:37:33;19.70;99.90
42365;DHT22;28498;54.400;18.566;2023-09-07T06:40:00;19.80;99.90
42365;DHT22;28498;54.400;18.566;2023-09-07T06:42:27;20.00;99.90
42365;DHT22;28498;54.400;18.566;2023-09-07T06:44:54;20.10;99.90
42365;DHT22;28498;54.400;18.566;2023-09-07T06:47:21;20.20;99.90
42365;DHT22;28498;54.400;18.566;2023-09-07T06:53:36;20.30;99.90
42365;DHT22;28498;54.400;18.566;2023-09-07T06:56:22;20.40;99.90
42365;DHT22;28498;54.400;18.566;2023-09-07T06:58:49;20.60;99.90
42365;DHT22;28498;54.400;18.566;2023-09-07T07:01:16;20.30;99.90
42365;DHT22;28498;54.400;18.566;2023-09-07T07:03:43;20.40;99.90
42365;DHT22;28498;54.400;18.566;2023-09-07T07:06:11;20.40;99.90
42365;DHT22;28498;54.400;18.566;2023-09-07T07:08:38;20.50;99.90
42365;DHT22;28498;54.400;18.566;2023-09-07T07:11:05;20.30;99.90
42365;DHT22;28498;54.400;18.566;2023-09-07T07:13:32;20.30;99.90
42365;DHT22;28498;54.400;18.566;2023-09-07T07:15:59;20.20;99.90
42365;DHT22;28498;54.400;18.566;2023-09-07T07:18:26;20.10;99.90
42365;DHT22;28498;54.400;18.566;2023-09-07T07:20:53;20.20;99.90
42365;DHT22;28498;54.400;18.566;2023-09-07T07:23:20;20.30;99.90
42365;DHT22;28498;54.400;18.566;2023-09-07T07:29:28;20.20;99.90
42365;DHT22;28498;54.400;18.566;2023-09-07T07:31:58;20.30;99.90
42365;DHT22;28498;54.400;18.566;2023-09-07T07:34:26;20.40;99.90
42365;DHT22;28498;54.400;18.566;2023-09-07T07:36:53;20.40;99.90
42365;DHT22;28498;54.400;18.566;2023-09-07T07:39:20;20.40;99.90
42365;DHT22;28498;54.400;18.566;2023-09-07T07:41:47;20.40;99.90
42365;DHT22;28498;54.400;18.566;2023-09-07T07:44:14;20.40;99.90
42365;DHT22;28498;54.400;18.566;2023-09-07T07:46:41;20.30;99.90
42365;DHT22;28498;54.400;18.566;2023-09-07T07:49:08;20.40;99.90
42365;DHT22;28498;54.400;18.566;2023-09-07T07:51:37;20.40;99.90
42365;DHT22;28498;54.400;18.566;2023-09-07T07:54:04;20.50;99.90
42365;DHT22;28498;54.400;18.566;2023-09-07T07:56:31;20.40;99.90
42365;DHT22;28498;54.400;18.566;2023-09-07T07:58:59;20.60;99.90
42365;DHT22;28498;54.400;18.566;2023-09-07T08:01:26;20.50;99.90
42365;DHT22;28498;54.400;18.566;2023-09-07T08:03:53;20.50;99.90
42365;DHT22;28498;54.400;18.566;2023-09-07T08:06:21;20.50;99.90
42365;DHT22;28498;54.400;18.566;2023-09-07T08:12:29;20.50;99.90
42365;DHT22;28498;54.400;18.566;2023-09-07T08:14:56;20.70;99.90
42365;DHT22;28498;54.400;18.566;2023-09-07T08:17:23;20.70;99.90
42365;DHT22;28498;54.400;18.566;2023-09-07T08:19:51;20.80;99.90
42365;DHT22;28498;54.400;18.566;2023-09-07T08:22:23;20.90;99.90
42365;DHT22;28498;54.400;18.566;2023-09-07T08:24:50;21.00;99.90
42365;DHT22;28498;54.400;18.566;2023-09-07T08:27:18;21.00;99.90
42365;DHT22;28498;54.400;18.566;2023-09-07T08:29:45;21.00;99.90
42365;DHT22;28498;54.400;18.566;2023-09-07T08:32:15;20.90;99.90
42365;DHT22;28498;54.400;18.566;2023-09-07T08:34:42;20.90;99.90
42365;DHT22;28498;54.400;18.566;2023-09-07T08:37:09;20.90;99.90
42365;DHT22;28498;54.400;18.566;2023-09-07T08:39:36;20.90;99.90
42365;DHT22;28498;54.400;18.566;2023-09-07T08:42:06;20.80;99.90
42365;DHT22;28498;54.400;18.566;2023-09-07T08:44:34;20.80;99.90
42365;DHT22;28498;54.400;18.566;2023-09-07T08:47:04;20.80;99.90
42365;DHT22;28498;54.400;18.566;2023-09-07T08:49:32;20.80;99.90
42365;DHT22;28498;54.400;18.566;2023-09-07T08:52:01;20.90;99.90
42365;DHT22;28498;54.400;18.566;2023-09-07T08:54:30;20.90;99.90
42365;DHT22;28498;54.400;18.566;2023-09-07T08:56:58;20.90;99.90
42365;DHT22;28498;54.400;18.566;2023-09-07T08:59:25;20.90;99.90
42365;DHT22;28498;54.400;18.566;2023-09-07T09:01:56;20.80;99.90
42365;DHT22;28498;54.400;18.566;2023-09-07T09:04:27;20.80;99.90
42365;DHT22;28498;54.400;18.566;2023-09-07T09:06:55;20.90;99.90
42365;DHT22;28498;54.400;18.566;2023-09-07T09:09:23;20.90;99.90
42365;DHT22;28498;54.400;18.566;2023-09-07T09:11:51;20.80;99.90
42365;DHT22;28498;54.400;18.566;2023-09-07T09:14:18;20.90;99.90
42365;DHT22;28498;54.400;18.566;2023-09-07T09:16:50;21.00;99.90
42365;DHT22;28498;54.400;18.566;2023-09-07T09:19:17;21.10;99.90
42365;DHT22;28498;54.400;18.566;2023-09-07T09:21:45;21.10;99.90
42365;DHT22;28498;54.400;18.566;2023-09-07T09:24:12;21.00;99.90
42365;DHT22;28498;54.400;18.566;2023-09-07T09:26:41;20.90;99.90
42365;DHT22;28498;54.400;18.566;2023-09-07T09:29:09;20.80;99.90
42365;DHT22;28498;54.400;18.566;2023-09-07T09:31:38;20.80;99.90
42365;DHT22;28498;54.400;18.566;2023-09-07T09:34:05;20.90;99.90
42365;DHT22;28498;54.400;18.566;2023-09-07T09:36:34;21.10;99.90
42365;DHT22;28498;54.400;18.566;2023-09-07T09:39:02;21.10;99.90
42365;DHT22;28498;54.400;18.566;2023-09-07T09:41:32;21.00;99.90
42365;DHT22;28498;54.400;18.566;2023-09-07T09:47:43;20.90;99.90
42365;DHT22;28498;54.400;18.566;2023-09-07T09:53:53;20.90;99.90
42365;DHT22;28498;54.400;18.566;2023-09-07T09:56:20;20.90;99.90
42365;DHT22;28498;54.400;18.566;2023-09-07T09:58:47;20.90;99.90
42365;DHT22;28498;54.400;18.566;2023-09-07T10:01:15;20.90;99.90
42365;DHT22;28498;54.400;18.566;2023-09-07T10:03:45;21.10;99.90
42365;DHT22;28498;54.400;18.566;2023-09-07T10:06:29;20.90;99.90
42365;DHT22;28498;54.400;18.566;2023-09-07T10:09:02;21.00;99.90
42365;DHT22;28498;54.400;18.566;2023-09-07T10:11:33;20.90;99.90
42365;DHT22;28498;54.400;18.566;2023-09-07T10:14:01;21.00;99.90
42365;DHT22;28498;54.400;18.566;2023-09-07T10:16:46;21.00;99.90
42365;DHT22;28498;54.400;18.566;2023-09-07T10:19:23;21.10;99.90
42365;DHT22;28498;54.400;18.566;2023-09-07T10:21:52;21.10;99.90
42365;DHT22;28498;54.400;18.566;2023-09-07T10:24:26;21.20;99.90
42365;DHT22;28498;54.400;18.566;2023-09-07T10:27:04;21.20;99.90
42365;DHT22;28498;54.400;18.566;2023-09-07T10:29:45;21.20;99.90
42365;DHT22;28498;54.400;18.566;2023-09-07T10:32:13;21.40;99.90
42365;DHT22;28498;54.400;18.566;2023-09-07T10:34:46;21.30;99.90
42365;DHT22;28498;54.400;18.566;2023-09-07T10:37:14;21.30;99.90
42365;DHT22;28498;54.400;18.566;2023-09-07T10:39:43;21.30;99.90
42365;DHT22;28498;54.400;18.566;2023-09-07T10:42:25;21.20;99.90
42365;DHT22;28498;54.400;18.566;2023-09-07T10:44:53;21.10;99.90
42365;DHT22;28498;54.400;18.566;2023-09-07T10:47:21;21.30;99.90
42365;DHT22;28498;54.400;18.566;2023-09-07T10:49:48;21.30;99.90
42365;DHT22;28498;54.400;18.566;2023-09-07T10:52:16;21.40;99.90
42365;DHT22;28498;54.400;18.566;2023-09-07T10:54:44;21.60;99.90
42365;DHT22;28498;54.400;18.566;2023-09-07T10:57:12;21.50;99.90
42365;DHT22;28498;54.400;18.566;2023-09-07T10:59:47;21.40;99.90
42365;DHT22;28498;54.400;18.566;2023-09-07T11:02:15;21.40;99.90
42365;DHT22;28498;54.400;18.566;2023-09-07T11:04:43;21.40;99.90
42365;DHT22;28498;54.400;18.566;2023-09-07T11:07:11;21.40;99.90
42365;DHT22;28498;54.400;18.566;2023-09-07T11:09:42;21.50;99.90
42365;DHT22;28498;54.400;18.566;2023-09-07T11:12:13;21.60;99.90
42365;DHT22;28498;54.400;18.566;2023-09-07T11:14:43;21.70;99.90
42365;DHT22;28498;54.400;18.566;2023-09-07T11:17:10;21.50;99.90
42365;DHT22;28498;54.400;18.566;2023-09-07T11:19:37;21.50;99.90
42365;DHT22;28498;54.400;18.566;2023-09-07T11:22:04;21.50;99.90
42365;DHT22;28498;54.400;18.566;2023-09-07T11:24:34;21.50;99.90
42365;DHT22;28498;54.400;18.566;2023-09-07T11:27:02;21.40;99.90
42365;DHT22;28498;54.400;18.566;2023-09-07T11:29:32;21.30;99.90
42365;DHT22;28498;54.400;18.566;2023-09-07T11:32:10;21.30;99.90
42365;DHT22;28498;54.400;18.566;2023-09-07T11:34:49;21.20;99.90
42365;DHT22;28498;54.400;18.566;2023-09-07T11:37:24;21.30;99.90
42365;DHT22;28498;54.400;18.566;2023-09-07T11:39:51;21.30;99.90
42365;DHT22;28498;54.400;18.566;2023-09-07T11:42:19;21.30;99.90
42365;DHT22;28498;54.400;18.566;2023-09-07T11:44:46;21.40;99.90
42365;DHT22;28498;54.400;18.566;2023-09-07T11:47:13;21.60;99.90
42365;DHT22;28498;54.400;18.566;2023-09-07T11:53:29;21.60;99.90
42365;DHT22;28498;54.400;18.566;2023-09-07T11:55:57;21.40;99.90
42365;DHT22;28498;54.400;18.566;2023-09-07T11:58:24;21.40;99.90
42365;DHT22;28498;54.400;18.566;2023-09-07T12:00:56;21.40;99.90
42365;DHT22;28498;54.400;18.566;2023-09-07T12:03:23;21.30;99.90
42365;DHT22;28498;54.400;18.566;2023-09-07T12:05:50;21.30;99.90
42365;DHT22;28498;54.400;18.566;2023-09-07T12:08:17;21.30;99.90
42365;DHT22;28498;54.400;18.566;2023-09-07T12:10:44;21.30;99.90
42365;DHT22;28498;54.400;18.566;2023-09-07T12:13:12;21.40;99.90
42365;DHT22;28498;54.400;18.566;2023-09-07T12:15:39;21.30;99.90
42365;DHT22;28498;54.400;18.566;2023-09-07T12:18:06;21.30;99.90
42365;DHT22;28498;54.400;18.566;2023-09-07T12:20:34;21.20;99.90
42365;DHT22;28498;54.400;18.566;2023-09-07T12:23:04;21.20;99.90
42365;DHT22;28498;54.400;18.566;2023-09-07T12:25:31;21.20;99.90
42365;DHT22;28498;54.400;18.566;2023-09-07T12:27:59;21.10;99.90
42365;DHT22;28498;54.400;18.566;2023-09-07T12:30:26;21.20;99.90
42365;DHT22;28498;54.400;18.566;2023-09-07T12:32:54;21.30;99.90
42365;DHT22;28498;54.400;18.566;2023-09-07T12:35:21;21.30;99.90
42365;DHT22;28498;54.400;18.566;2023-09-07T12:37:49;21.20;99.90
42365;DHT22;28498;54.400;18.566;2023-09-07T12:40:16;21.20;99.90
42365;DHT22;28498;54.400;18.566;2023-09-07T12:42:44;21.10;99.90
42365;DHT22;28498;54.400;18.566;2023-09-07T12:45:12;21.20;99.90
42365;DHT22;28498;54.400;18.566;2023-09-07T12:47:41;21.20;99.90
42365;DHT22;28498;54.400;18.566;2023-09-07T12:50:08;21.30;99.90
42365;DHT22;28498;54.400;18.566;2023-09-07T12:52:35;21.40;99.90
42365;DHT22;28498;54.400;18.566;2023-09-07T12:58:47;21.50;99.90
42365;DHT22;28498;54.400;18.566;2023-09-07T13:01:14;21.40;99.90
42365;DHT22;28498;54.400;18.566;2023-09-07T13:03:43;21.50;99.90
42365;DHT22;28498;54.400;18.566;2023-09-07T13:06:10;21.50;99.90
42365;DHT22;28498;54.400;18.566;2023-09-07T13:08:37;21.50;99.90
42365;DHT22;28498;54.400;18.566;2023-09-07T13:11:05;21.50;99.90
42365;DHT22;28498;54.400;18.566;2023-09-07T13:13:32;21.50;99.90
42365;DHT22;28498;54.400;18.566;2023-09-07T13:15:59;21.60;99.90
42365;DHT22;28498;54.400;18.566;2023-09-07T13:18:28;21.50;99.90
42365;DHT22;28498;54.400;18.566;2023-09-07T13:20:54;21.30;99.90
42365;DHT22;28498;54.400;18.566;2023-09-07T13:23:29;21.30;99.90
42365;DHT22;28498;54.400;18.566;2023-09-07T13:25:57;21.40;99.90
42365;DHT22;28498;54.400;18.566;2023-09-07T13:28:24;21.60;99.90
42365;DHT22;28498;54.400;18.566;2023-09-07T13:30:51;21.60;99.90
42365;DHT22;28498;54.400;18.566;2023-09-07T13:33:18;21.60;99.90
42365;DHT22;28498;54.400;18.566;2023-09-07T13:35:45;21.60;99.90
42365;DHT22;28498;54.400;18.566;2023-09-07T13:38:12;21.70;99.90
42365;DHT22;28498;54.400;18.566;2023-09-07T13:40:40;21.70;99.90
42365;DHT22;28498;54.400;18.566;2023-09-07T13:43:07;21.60;99.90
42365;DHT22;28498;54.400;18.566;2023-09-07T13:45:34;21.70;99.90
42365;DHT22;28498;54.400;18.566;2023-09-07T13:48:01;21.80;99.90
42365;DHT22;28498;54.400;18.566;2023-09-07T13:50:29;21.80;99.90
42365;DHT22;28498;54.400;18.566;2023-09-07T13:52:56;21.90;99.90
42365;DHT22;28498;54.400;18.566;2023-09-07T13:55:23;21.80;99.90
42365;DHT22;28498;54.400;18.566;2023-09-07T13:57:52;21.80;99.90
42365;DHT22;28498;54.400;18.566;2023-09-07T14:00:19;21.90;99.90
42365;DHT22;28498;54.400;18.566;2023-09-07T14:02:46;22.00;99.90
42365;DHT22;28498;54.400;18.566;2023-09-07T14:05:13;22.10;99.90
42365;DHT22;28498;54.400;18.566;2023-09-07T14:07:40;22.20;99.90
42365;DHT22;28498;54.400;18.566;2023-09-07T14:10:07;22.20;99.90
42365;DHT22;28498;54.400;18.566;2023-09-07T14:12:34;22.00;99.90
42365;DHT22;28498;54.400;18.566;2023-09-07T14:15:01;21.80;99.90
42365;DHT22;28498;54.400;18.566;2023-09-07T14:17:28;21.80;99.90
42365;DHT22;28498;54.400;18.566;2023-09-07T14:19:56;21.90;99.90
42365;DHT22;28498;54.400;18.566;2023-09-07T14:22:23;21.90;99.90
42365;DHT22;28498;54.400;18.566;2023-09-07T14:24:50;22.00;99.90
42365;DHT22;28498;54.400;18.566;2023-09-07T14:27:17;22.20;99.90
42365;DHT22;28498;54.400;18.566;2023-09-07T14:29:44;22.50;99.90
42365;DHT22;28498;54.400;18.566;2023-09-07T14:32:11;23.00;99.90
42365;DHT22;28498;54.400;18.566;2023-09-07T14:34:38;23.80;99.90
42365;DHT22;28498;54.400;18.566;2023-09-07T14:37:05;24.10;99.90
42365;DHT22;28498;54.400;18.566;2023-09-07T14:39:32;24.60;99.90
42365;DHT22;28498;54.400;18.566;2023-09-07T14:41:59;24.80;99.90
42365;DHT22;28498;54.400;18.566;2023-09-07T14:44:27;25.30;99.90
42365;DHT22;28498;54.400;18.566;2023-09-07T14:46:54;25.70;99.90
42365;DHT22;28498;54.400;18.566;2023-09-07T14:49:21;25.90;99.90
42365;DHT22;28498;54.400;18.566;2023-09-07T14:55:36;25.80;99.90
42365;DHT22;28498;54.400;18.566;2023-09-07T14:58:03;26.00;99.90
42365;DHT22;28498;54.400;18.566;2023-09-07T15:00:36;25.90;99.90
42365;DHT22;28498;54.400;18.566;2023-09-07T15:03:03;25.50;99.90
42365;DHT22;28498;54.400;18.566;2023-09-07T15:05:31;25.40;99.90
42365;DHT22;28498;54.400;18.566;2023-09-07T15:07:58;25.50;99.90
42365;DHT22;28498;54.400;18.566;2023-09-07T15:10:29;25.30;99.90
42365;DHT22;28498;54.400;18.566;2023-09-07T15:12:56;25.00;99.90
42365;DHT22;28498;54.400;18.566;2023-09-07T15:15:23;24.80;99.90
42365;DHT22;28498;54.400;18.566;2023-09-07T15:17:50;24.80;99.90
42365;DHT22;28498;54.400;18.566;2023-09-07T15:20:18;24.70;99.90
42365;DHT22;28498;54.400;18.566;2023-09-07T15:22:45;24.50;99.90
42365;DHT22;28498;54.400;18.566;2023-09-07T15:25:12;25.00;99.90
42365;DHT22;28498;54.400;18.566;2023-09-07T15:27:39;24.90;99.90
42365;DHT22;28498;54.400;18.566;2023-09-07T15:30:07;25.20;99.90
42365;DHT22;28498;54.400;18.566;2023-09-07T15:32:34;24.90;99.90
42365;DHT22;28498;54.400;18.566;2023-09-07T15:35:01;25.00;99.90
42365;DHT22;28498;54.400;18.566;2023-09-07T15:37:28;24.80;99.90
42365;DHT22;28498;54.400;18.566;2023-09-07T15:39:55;24.80;99.90
42365;DHT22;28498;54.400;18.566;2023-09-07T15:42:22;25.00;99.90
42365;DHT22;28498;54.400;18.566;2023-09-07T15:44:50;24.90;99.90
42365;DHT22;28498;54.400;18.566;2023-09-07T15:47:17;24.50;99.90
42365;DHT22;28498;54.400;18.566;2023-09-07T15:49:44;24.40;99.90